Time;durP1;ratioP1;P1;durP2;ratioP2;P2;SDS_P1;SDS_P2;PMS_P1;PMS_P2;Temp;Humidity;BMP_temperature;BMP_pressure;BME280_temperature;BME280_humidity;BME280_pressure;Samples;Min_cycle;Max_cycle;Signal;HPM_P1;HPM_P2
2021/06/07 00:00:28;;;;;;;5.15;3.75;;;20.80;99.90;;;;;;4990880;28;20483;-76
2021/06/07 00:02:55;;;;;;;8.57;4.07;;;20.80;99.90;;;;;;4995540;28;20488;-76
2021/06/07 00:05:22;;;;;;;9.20;3.95;;;20.80;99.90;;;;;;4996182;28;20051;-76
2021/06/07 00:07:48;;;;;;;4.75;4.10;;;20.80;99.90;;;;;;4991623;28;20081;-76
2021/06/07 00:10:15;;;;;;;5.07;3.58;;;20.80;99.90;;;;;;4995197;28;20014;-76
2021/06/07 00:12:41;;;;;;;7.50;3.90;;;20.80;99.90;;;;;;4994322;28;20027;-80
2021/06/07 00:15:11;;;;;;;4.93;3.30;;;20.90;99.90;;;;;;4995623;28;20101;-79
2021/06/07 00:17:37;;;;;;;4.03;3.50;;;20.90;99.90;;;;;;4992815;28;20089;-79
2021/06/07 00:20:09;;;;;;;4.93;3.33;;;20.90;99.90;;;;;;4993837;28;20023;-77
2021/06/07 00:22:34;;;;;;;8.93;4.30;;;20.90;99.90;;;;;;4990949;28;20112;-77
2021/06/07 00:25:01;;;;;;;6.25;3.40;;;21.00;99.90;;;;;;4990139;28;20158;-76
2021/06/07 00:27:26;;;;;;;4.53;3.40;;;21.00;99.90;;;;;;4993367;28;20034;-76
2021/06/07 00:29:52;;;;;;;5.57;3.42;;;20.90;99.90;;;;;;4990768;28;20038;-76
2021/06/07 00:32:18;;;;;;;3.95;3.13;;;20.90;99.90;;;;;;4995457;28;20027;-75
2021/06/07 00:34:43;;;;;;;4.90;3.60;;;21.00;99.90;;;;;;4995228;28;20479;-75
2021/06/07 00:37:09;;;;;;;4.00;3.60;;;21.00;99.90;;;;;;4994884;28;20014;-76
2021/06/07 00:39:35;;;;;;;3.22;2.92;;;21.00;99.90;;;;;;4994105;28;20042;-75
2021/06/07 00:42:00;;;;;;;7.45;3.30;;;21.00;99.90;;;;;;4994432;28;20479;-76
2021/06/07 00:44:26;;;;;;;4.13;3.10;;;21.00;99.90;;;;;;4994901;28;20040;-75
2021/06/07 00:46:52;;;;;;;7.15;3.30;;;21.00;99.90;;;;;;4994361;28;20169;-77
2021/06/07 00:49:18;;;;;;;5.55;3.45;;;21.00;99.90;;;;;;4991435;28;20089;-75
2021/06/07 00:51:45;;;;;;;7.85;3.38;;;21.00;99.90;;;;;;4990224;28;20023;-76
2021/06/07 00:54:11;;;;;;;8.18;3.42;;;21.00;99.90;;;;;;4990821;28;20438;-76
2021/06/07 00:56:38;;;;;;;7.75;3.50;;;21.00;99.90;;;;;;4988713;28;20027;-76
2021/06/07 00:59:04;;;;;;;11.82;4.03;;;21.00;99.90;;;;;;4985515;28;20037;-76
2021/06/07 01:01:30;;;;;;;7.45;3.72;;;21.00;99.90;;;;;;4975419;28;20431;-76
2021/06/07 01:03:58;;;;;;;3.90;3.50;;;20.90;99.90;;;;;;4988891;28;20041;-76
2021/06/07 01:06:25;;;;;;;4.00;3.58;;;20.90;99.90;;;;;;4982198;28;20034;-76
2021/06/07 01:08:51;;;;;;;3.95;3.65;;;20.90;99.90;;;;;;4994569;28;20027;-75
2021/06/07 01:11:17;;;;;;;5.20;3.15;;;20.80;99.90;;;;;;4978852;28;20503;-76
2021/06/07 01:13:46;;;;;;;12.50;3.45;;;20.80;99.90;;;;;;4975058;28;20472;-76
2021/06/07 01:16:12;;;;;;;3.75;2.95;;;20.70;99.90;;;;;;4992045;28;20506;-75
2021/06/07 01:18:39;;;;;;;9.57;3.08;;;20.80;99.90;;;;;;4993948;28;20026;-76
2021/06/07 01:21:10;;;;;;;7.45;3.70;;;20.80;99.90;;;;;;4981900;28;20034;-75
2021/06/07 01:23:37;;;;;;;4.63;3.78;;;20.80;99.90;;;;;;4984040;28;20022;-75
2021/06/07 01:26:06;;;;;;;6.93;3.28;;;20.80;99.90;;;;;;4991055;28;20037;-79
2021/06/07 01:28:32;;;;;;;5.32;3.33;;;20.70;99.90;;;;;;4976478;28;20089;-76
2021/06/07 01:30:59;;;;;;;6.70;3.47;;;20.70;99.90;;;;;;4973137;28;20031;-78
2021/06/07 01:33:27;;;;;;;11.10;3.20;;;20.70;99.90;;;;;;4974521;28;20026;-80
2021/06/07 01:35:55;;;;;;;5.78;3.05;;;20.70;99.90;;;;;;4974489;28;20464;-75
2021/06/07 01:38:21;;;;;;;3.72;3.42;;;20.70;99.90;;;;;;4974894;28;20026;-77
2021/06/07 01:40:52;;;;;;;4.75;3.40;;;20.70;99.90;;;;;;4986462;28;20097;-77
2021/06/07 01:43:18;;;;;;;3.77;3.00;;;20.70;99.90;;;;;;4974447;28;20023;-76
2021/06/07 01:45:46;;;;;;;4.93;3.30;;;20.70;99.90;;;;;;4976648;28;20035;-76
2021/06/07 01:48:13;;;;;;;5.20;3.28;;;20.60;99.90;;;;;;4993687;28;20050;-75
2021/06/07 01:50:40;;;;;;;15.68;3.78;;;20.70;99.90;;;;;;4993545;28;20018;-75
2021/06/07 01:53:07;;;;;;;3.67;3.28;;;20.70;99.90;;;;;;4979295;28;20031;-76
2021/06/07 01:55:39;;;;;;;5.43;3.42;;;20.70;99.90;;;;;;4981196;28;20053;-75
2021/06/07 01:58:07;;;;;;;5.57;3.50;;;20.70;99.90;;;;;;4989746;28;20018;-75
2021/06/07 02:00:40;;;;;;;5.85;3.47;;;20.70;99.90;;;;;;4984307;28;20038;-76
2021/06/07 02:03:08;;;;;;;3.22;2.92;;;20.70;99.90;;;;;;4979468;28;20105;-75
2021/06/07 02:05:37;;;;;;;3.90;3.50;;;20.60;99.90;;;;;;4973888;28;20027;-75
2021/06/07 02:08:09;;;;;;;3.80;3.50;;;20.70;99.90;;;;;;4989590;28;20031;-74
2021/06/07 02:10:39;;;;;;;4.00;3.63;;;20.60;99.90;;;;;;4993553;28;20137;-75
2021/06/07 02:13:07;;;;;;;8.18;3.55;;;20.70;99.90;;;;;;4980693;28;20031;-75
2021/06/07 02:15:33;;;;;;;4.63;3.60;;;20.60;99.90;;;;;;4985391;28;20181;-75
2021/06/07 02:18:10;;;;;;;5.20;3.40;;;20.60;99.90;;;;;;4987235;28;20522;-74
2021/06/07 02:20:37;;;;;;;11.13;3.60;;;20.60;99.90;;;;;;4969509;28;20037;-74
2021/06/07 02:23:03;;;;;;;4.80;3.45;;;20.60;99.90;;;;;;4986032;28;20046;-75
2021/06/07 02:25:29;;;;;;;6.68;3.47;;;20.70;99.90;;;;;;4973640;28;20542;-74
2021/06/07 02:27:55;;;;;;;4.95;3.80;;;20.70;99.90;;;;;;4984077;28;20046;-74
2021/06/07 02:30:29;;;;;;;7.63;3.60;;;20.60;99.90;;;;;;4993012;28;20022;-75
2021/06/07 02:32:56;;;;;;;5.40;3.90;;;20.60;99.90;;;;;;4987245;28;20027;-75
2021/06/07 02:35:22;;;;;;;3.90;3.40;;;20.70;99.90;;;;;;4973365;28;20019;-75
2021/06/07 02:37:51;;;;;;;4.72;3.67;;;20.70;99.90;;;;;;4973766;28;20031;-75
2021/06/07 02:40:23;;;;;;;8.52;4.07;;;20.60;99.90;;;;;;4992958;28;20130;-75
2021/06/07 02:42:50;;;;;;;4.85;3.88;;;20.60;99.90;;;;;;4993222;28;20102;-74
2021/06/07 02:45:17;;;;;;;3.78;3.47;;;20.60;99.90;;;;;;4992739;28;20022;-74
2021/06/07 02:47:44;;;;;;;5.38;4.07;;;20.60;99.90;;;;;;4992870;28;20390;-75
2021/06/07 02:50:12;;;;;;;4.05;3.65;;;20.60;99.90;;;;;;4992668;28;20062;-75
2021/06/07 02:52:47;;;;;;;4.97;3.60;;;20.50;99.90;;;;;;4986738;28;20022;-75
2021/06/07 02:55:14;;;;;;;4.25;3.85;;;20.50;99.90;;;;;;4970589;28;20089;-75
2021/06/07 02:57:39;;;;;;;6.40;3.80;;;20.50;99.90;;;;;;4967343;28;20078;-76
2021/06/07 03:00:06;;;;;;;4.20;3.75;;;20.50;99.90;;;;;;4970501;28;20023;-74
2021/06/07 03:02:32;;;;;;;5.40;3.90;;;20.50;99.90;;;;;;4972765;28;20022;-75
2021/06/07 03:04:57;;;;;;;8.35;4.10;;;20.50;99.90;;;;;;4966489;28;20365;-77
2021/06/07 03:07:23;;;;;;;5.55;3.80;;;20.40;99.90;;;;;;4973063;28;20046;-75
2021/06/07 03:09:49;;;;;;;5.45;4.20;;;20.40;99.90;;;;;;4966209;28;20472;-75
2021/06/07 03:12:15;;;;;;;4.50;4.03;;;20.40;99.90;;;;;;4972957;28;20049;-75
2021/06/07 03:14:43;;;;;;;4.88;3.63;;;20.40;99.90;;;;;;4967538;28;20434;-76
2021/06/07 03:17:09;;;;;;;3.72;3.33;;;20.40;99.90;;;;;;4964859;28;20027;-75
2021/06/07 03:19:34;;;;;;;6.45;3.83;;;20.40;99.90;;;;;;4972692;28;20031;-75
2021/06/07 03:22:00;;;;;;;3.72;3.25;;;20.40;99.90;;;;;;4965017;28;20026;-75
2021/06/07 03:24:26;;;;;;;3.90;3.50;;;20.40;99.90;;;;;;4971589;28;20134;-75
2021/06/07 03:26:52;;;;;;;10.50;3.75;;;20.40;99.90;;;;;;4966778;28;20103;-76
2021/06/07 03:29:18;;;;;;;3.97;3.20;;;20.40;99.90;;;;;;4972463;28;20035;-75
2021/06/07 03:31:43;;;;;;;3.53;2.85;;;20.40;99.90;;;;;;4973240;28;20110;-75
2021/06/07 03:34:09;;;;;;;9.25;2.90;;;20.50;99.90;;;;;;4965032;28;20428;-74
2021/06/07 03:36:35;;;;;;;3.40;3.10;;;20.40;99.90;;;;;;4966679;28;20476;-75
2021/06/07 03:39:01;;;;;;;4.22;3.03;;;20.50;99.90;;;;;;4972915;28;20027;-75
2021/06/07 03:41:27;;;;;;;3.88;3.10;;;20.50;99.90;;;;;;4972476;28;20031;-79
2021/06/07 03:43:53;;;;;;;3.53;2.90;;;20.50;99.90;;;;;;4972563;28;20023;-75
2021/06/07 03:46:18;;;;;;;3.45;3.03;;;20.50;99.90;;;;;;4965707;28;20027;-74
2021/06/07 03:48:44;;;;;;;3.90;3.35;;;20.50;99.90;;;;;;4972411;28;20499;-75
2021/06/07 03:51:10;;;;;;;3.33;3.00;;;20.50;99.90;;;;;;4972248;28;20043;-75
2021/06/07 03:53:36;;;;;;;6.53;3.22;;;20.60;99.90;;;;;;4982294;28;20030;-75
2021/06/07 03:56:02;;;;;;;3.45;3.08;;;20.60;99.90;;;;;;4991721;28;20027;-75
2021/06/07 03:58:29;;;;;;;3.75;2.63;;;20.60;99.90;;;;;;4977112;28;20034;-75
2021/06/07 04:00:55;;;;;;;6.53;3.33;;;20.60;99.90;;;;;;4969767;28;20027;-75
2021/06/07 04:03:21;;;;;;;3.35;2.53;;;20.60;99.90;;;;;;4977299;28;20463;-76
2021/06/07 04:05:47;;;;;;;7.88;2.20;;;20.70;99.90;;;;;;4992263;28;20022;-76
2021/06/07 04:08:12;;;;;;;3.30;2.40;;;20.70;99.90;;;;;;4983281;28;20086;-75
2021/06/07 04:10:40;;;;;;;5.05;2.50;;;20.70;99.90;;;;;;4970355;28;20066;-75
2021/06/07 04:13:06;;;;;;;5.47;1.90;;;20.70;99.90;;;;;;4965618;28;20039;-74
2021/06/07 04:15:32;;;;;;;3.28;2.60;;;20.70;99.90;;;;;;4972444;28;20019;-75
2021/06/07 04:17:58;;;;;;;2.63;2.42;;;20.70;99.90;;;;;;4972680;28;20022;-74
2021/06/07 04:20:26;;;;;;;3.83;3.03;;;20.70;99.90;;;;;;4967309;28;20111;-76
2021/06/07 04:22:52;;;;;;;3.97;2.58;;;20.70;99.90;;;;;;4970635;28;20503;-75
2021/06/07 04:25:21;;;;;;;2.83;2.50;;;20.70;99.90;;;;;;4975594;28;20018;-77
2021/06/07 04:27:47;;;;;;;3.45;2.45;;;20.80;99.90;;;;;;4973098;28;20506;-74
2021/06/07 04:30:16;;;;;;;2.70;2.40;;;20.90;99.90;;;;;;4975650;28;20478;-75
2021/06/07 04:32:42;;;;;;;3.25;2.35;;;20.90;99.90;;;;;;4968903;28;20026;-75
2021/06/07 04:35:10;;;;;;;2.42;2.22;;;20.90;99.90;;;;;;4968725;28;20027;-75
2021/06/07 04:37:41;;;;;;;2.03;1.92;;;21.00;99.90;;;;;;4975946;28;20027;-75
2021/06/07 04:40:08;;;;;;;2.33;2.13;;;21.00;99.90;;;;;;4975087;28;20046;-74
2021/06/07 04:42:34;;;;;;;2.70;2.50;;;21.00;99.90;;;;;;4964558;28;20030;-74
2021/06/07 04:45:00;;;;;;;2.45;2.25;;;21.00;99.90;;;;;;4975484;28;20019;-74
2021/06/07 04:47:26;;;;;;;2.92;2.33;;;21.00;99.90;;;;;;4975615;28;20393;-75
2021/06/07 04:49:52;;;;;;;6.30;2.20;;;21.10;99.90;;;;;;4991935;28;20121;-75
2021/06/07 04:52:17;;;;;;;1.98;1.80;;;21.10;99.90;;;;;;4989808;28;20033;-75
2021/06/07 04:54:43;;;;;;;2.00;1.90;;;21.20;99.90;;;;;;4983871;28;20019;-77
2021/06/07 04:57:09;;;;;;;6.70;2.05;;;21.20;99.90;;;;;;4989764;28;20102;-76
2021/06/07 04:59:35;;;;;;;3.35;2.03;;;21.20;99.90;;;;;;4983329;28;20414;-75
2021/06/07 05:02:00;;;;;;;2.03;1.80;;;21.30;99.90;;;;;;4985586;28;20088;-76
2021/06/07 05:04:26;;;;;;;2.55;2.13;;;21.40;99.90;;;;;;4994632;28;20038;-75
2021/06/07 05:06:52;;;;;;;5.78;1.90;;;21.40;99.90;;;;;;4994589;28;20027;-75
2021/06/07 05:09:17;;;;;;;1.92;1.83;;;21.50;99.90;;;;;;4994878;28;20074;-76
2021/06/07 05:11:44;;;;;;;2.60;1.98;;;21.60;99.90;;;;;;4994514;28;20143;-76
2021/06/07 05:14:10;;;;;;;4.43;2.08;;;21.70;99.90;;;;;;4994870;28;20045;-75
2021/06/07 05:16:36;;;;;;;3.78;2.10;;;21.80;99.90;;;;;;4994453;28;20106;-75
2021/06/07 05:19:01;;;;;;;3.88;2.22;;;21.80;99.90;;;;;;4994515;28;20383;-75
2021/06/07 05:21:27;;;;;;;2.50;2.20;;;21.90;99.90;;;;;;5002244;28;20109;-77
2021/06/07 05:23:53;;;;;;;4.88;2.30;;;21.90;99.90;;;;;;4993973;28;20018;-76
2021/06/07 05:26:19;;;;;;;2.53;2.33;;;21.90;99.90;;;;;;4999199;28;20026;-77
2021/06/07 05:28:45;;;;;;;4.45;2.78;;;22.00;99.90;;;;;;4991065;28;20022;-75
2021/06/07 05:31:10;;;;;;;3.17;2.88;;;22.00;99.90;;;;;;4992333;28;20033;-75
2021/06/07 05:33:36;;;;;;;3.53;3.10;;;22.00;99.90;;;;;;4992542;28;20022;-77
2021/06/07 05:36:02;;;;;;;3.75;2.97;;;22.00;99.90;;;;;;4993760;28;20117;-80
2021/06/07 05:38:28;;;;;;;5.13;2.63;;;22.20;99.90;;;;;;4993916;28;20030;-78
2021/06/07 05:40:54;;;;;;;3.60;2.90;;;22.30;99.90;;;;;;4994213;28;20018;-76
2021/06/07 05:43:23;;;;;;;4.60;3.20;;;22.30;99.90;;;;;;4993969;28;20110;-76
2021/06/07 05:45:50;;;;;;;5.68;3.28;;;22.20;99.90;;;;;;4993956;28;20036;-76
2021/06/07 05:48:16;;;;;;;4.43;3.17;;;22.20;99.90;;;;;;4993288;28;20560;-77
2021/06/07 05:50:43;;;;;;;4.05;3.20;;;22.30;99.90;;;;;;4993903;28;20403;-77
2021/06/07 05:53:11;;;;;;;3.47;2.90;;;22.30;99.90;;;;;;4994018;28;20031;-78
2021/06/07 05:55:40;;;;;;;4.72;3.10;;;22.30;99.90;;;;;;4993778;28;20105;-78
2021/06/07 05:58:18;;;;;;;7.55;3.20;;;22.40;99.90;;;;;;4994034;28;20466;-77
2021/06/07 06:00:46;;;;;;;5.47;3.22;;;22.50;99.90;;;;;;4992515;28;20018;-80
2021/06/07 06:03:12;;;;;;;5.45;3.88;;;22.60;99.90;;;;;;4975884;28;20026;-77
2021/06/07 06:05:38;;;;;;;3.78;3.47;;;22.70;99.90;;;;;;4993784;28;20031;-77
2021/06/07 06:08:05;;;;;;;3.40;3.10;;;22.80;99.90;;;;;;4988051;28;20033;-78
2021/06/07 06:10:32;;;;;;;5.55;3.30;;;23.10;99.90;;;;;;4991113;28;20018;-80
2021/06/07 06:12:58;;;;;;;3.53;3.22;;;23.60;99.90;;;;;;4992698;28;20026;-79
2021/06/07 06:15:24;;;;;;;6.78;3.55;;;23.70;99.90;;;;;;4993218;28;20022;-76
2021/06/07 06:17:51;;;;;;;12.57;3.05;;;23.70;99.90;;;;;;4992557;28;20022;-81
2021/06/07 06:20:18;;;;;;;3.40;2.88;;;23.80;99.90;;;;;;4992767;28;20026;-80
2021/06/07 06:22:45;;;;;;;3.75;2.75;;;23.70;99.90;;;;;;4992802;28;20045;-82
2021/06/07 06:25:12;;;;;;;6.43;3.63;;;23.70;99.90;;;;;;4986039;28;20425;-81
2021/06/07 06:27:39;;;;;;;4.90;3.40;;;23.70;99.90;;;;;;4986437;28;20023;-83
2021/06/07 06:30:07;;;;;;;3.33;2.50;;;23.90;99.90;;;;;;4989774;28;20037;-79
2021/06/07 06:32:33;;;;;;;2.80;2.33;;;24.10;99.90;;;;;;4992578;28;20081;-83
2021/06/07 06:34:59;;;;;;;2.97;2.00;;;24.70;99.90;;;;;;4992597;28;20022;-78
2021/06/07 06:37:25;;;;;;;2.72;1.85;;;25.70;99.90;;;;;;4993177;28;20110;-77
2021/06/07 06:39:51;;;;;;;3.15;1.92;;;26.60;99.90;;;;;;4993392;28;20527;-78
2021/06/07 06:42:17;;;;;;;2.33;2.13;;;27.30;99.90;;;;;;4973699;28;20037;-78
2021/06/07 06:44:43;;;;;;;2.40;2.00;;;27.40;99.90;;;;;;4992517;28;20036;-78
2021/06/07 06:47:09;;;;;;;1.70;1.60;;;27.80;99.90;;;;;;4991723;28;20022;-77
2021/06/07 06:49:36;;;;;;;2.72;1.92;;;28.20;99.90;;;;;;4991814;28;20125;-79
2021/06/07 06:52:02;;;;;;;3.67;2.30;;;28.10;99.90;;;;;;4991071;28;20468;-77
2021/06/07 06:54:28;;;;;;;9.10;2.00;;;27.80;99.90;;;;;;4987984;28;20062;-78
2021/06/07 06:56:54;;;;;;;2.08;1.85;;;27.50;99.90;;;;;;4986862;28;20073;-77
2021/06/07 06:59:20;;;;;;;6.22;2.25;;;27.30;99.90;;;;;;4992043;28;20027;-78
2021/06/07 07:01:46;;;;;;;2.97;2.00;;;26.80;99.90;;;;;;4990416;28;20030;-77
2021/06/07 07:04:12;;;;;;;2.05;1.90;;;26.60;99.90;;;;;;4986724;28;20395;-78
2021/06/07 07:06:37;;;;;;;1.77;1.67;;;26.40;99.90;;;;;;4985297;28;20092;-78
2021/06/07 07:09:04;;;;;;;5.57;2.40;;;26.40;99.90;;;;;;4987299;28;20018;-78
2021/06/07 07:11:30;;;;;;;9.65;2.63;;;26.30;99.90;;;;;;4981706;28;20014;-77
2021/06/07 07:13:56;;;;;;;4.78;2.30;;;26.40;99.90;;;;;;4991410;28;20037;-80
2021/06/07 07:16:22;;;;;;;2.00;1.88;;;26.70;99.90;;;;;;4983292;28;20034;-77
2021/06/07 07:18:48;;;;;;;2.10;1.90;;;26.90;99.90;;;;;;4989363;28;20386;-78
2021/06/07 07:21:14;;;;;;;7.03;1.95;;;26.90;99.90;;;;;;4987011;28;20026;-79
2021/06/07 07:23:40;;;;;;;3.72;2.17;;;27.10;99.90;;;;;;4989385;28;20382;-78
2021/06/07 07:26:06;;;;;;;5.47;1.75;;;26.90;99.90;;;;;;4991403;28;20032;-82
2021/06/07 07:28:32;;;;;;;12.85;2.55;;;27.00;99.90;;;;;;4991600;28;20038;-81
2021/06/07 07:30:57;;;;;;;4.85;1.52;;;27.30;99.90;;;;;;4991170;28;20026;-81
2021/06/07 07:33:23;;;;;;;12.45;2.88;;;27.40;99.90;;;;;;4966275;28;20030;-80
2021/06/07 07:35:49;;;;;;;15.68;2.58;;;27.00;99.90;;;;;;4980125;28;20026;-77
2021/06/07 07:38:15;;;;;;;8.02;2.08;;;27.00;99.90;;;;;;4989752;28;20023;-80
2021/06/07 07:40:42;;;;;;;10.88;2.03;;;27.00;99.90;;;;;;4983923;28;20426;-80
2021/06/07 07:43:11;;;;;;;2.72;1.95;;;27.00;99.90;;;;;;4985008;28;20030;-82
2021/06/07 07:45:38;;;;;;;5.22;1.98;;;26.90;99.90;;;;;;4979342;28;20034;-81
2021/06/07 07:48:06;;;;;;;12.98;2.38;;;26.80;99.90;;;;;;4979632;28;20510;-82
2021/06/07 07:50:33;;;;;;;5.70;2.53;;;27.10;99.90;;;;;;4967933;28;20038;-78
2021/06/07 07:52:59;;;;;;;6.28;2.53;;;27.30;99.90;;;;;;4954918;28;20054;-78
2021/06/07 07:55:30;;;;;;;2.75;2.40;;;27.70;99.90;;;;;;4972294;28;20078;-79
2021/06/07 07:57:56;;;;;;;4.22;2.40;;;28.10;99.90;;;;;;4976348;28;20027;-78
2021/06/07 08:00:26;;;;;;;5.20;2.60;;;28.10;99.90;;;;;;4969090;28;20033;-78
2021/06/07 08:02:52;;;;;;;13.57;2.92;;;28.40;99.90;;;;;;4976504;28;20415;-81
2021/06/07 08:05:19;;;;;;;2.40;2.20;;;28.70;99.90;;;;;;4975168;28;20023;-82
2021/06/07 08:07:44;;;;;;;16.95;2.90;;;28.80;99.90;;;;;;4974785;28;20062;-77
2021/06/07 08:10:12;;;;;;;10.02;3.60;;;28.10;99.90;;;;;;4961661;28;20058;-89
2021/06/07 08:12:45;;;;;;;8.45;3.78;;;27.60;99.90;;;;;;4969241;28;20492;-78
2021/06/07 08:15:11;;;;;;;6.57;3.60;;;27.40;99.90;;;;;;4976863;28;20019;-77
2021/06/07 08:17:37;;;;;;;15.43;4.57;;;27.40;99.90;;;;;;4976341;28;20027;-77
2021/06/07 08:20:08;;;;;;;4.43;3.53;;;27.00;99.90;;;;;;4969502;28;20061;-87
2021/06/07 08:22:34;;;;;;;30.75;6.28;;;27.10;99.90;;;;;;4965679;28;20492;-77
2021/06/07 08:25:00;;;;;;;18.92;4.25;;;27.30;99.90;;;;;;4973380;28;20122;-77
2021/06/07 08:27:27;;;;;;;5.13;4.18;;;27.40;99.90;;;;;;4976283;28;20018;-77
2021/06/07 08:29:53;;;;;;;19.20;4.35;;;27.70;99.90;;;;;;4967018;28;20031;-77
2021/06/07 08:32:19;;;;;;;7.07;4.20;;;27.80;99.90;;;;;;4975296;28;20027;-78
2021/06/07 08:34:45;;;;;;;7.88;4.57;;;27.80;99.90;;;;;;4974725;28;20041;-79
2021/06/07 08:37:10;;;;;;;7.20;3.40;;;28.10;99.90;;;;;;4958346;28;20027;-77
2021/06/07 08:39:36;;;;;;;6.25;3.88;;;28.10;99.90;;;;;;4969638;28;20030;-78
2021/06/07 08:42:02;;;;;;;4.97;3.90;;;28.10;99.90;;;;;;4972998;28;20026;-78
2021/06/07 08:44:28;;;;;;;8.77;4.25;;;27.90;99.90;;;;;;4975375;28;20114;-76
2021/06/07 08:46:55;;;;;;;22.20;5.28;;;27.90;99.90;;;;;;4965431;28;20290;-77
2021/06/07 08:49:21;;;;;;;10.40;4.47;;;27.80;99.90;;;;;;4964041;28;20051;-78
2021/06/07 08:51:48;;;;;;;25.25;4.63;;;27.70;99.90;;;;;;4963663;28;20500;-78
2021/06/07 08:54:13;;;;;;;17.13;5.32;;;27.80;99.90;;;;;;4966150;28;20102;-77
2021/06/07 08:56:40;;;;;;;7.65;3.88;;;27.70;99.90;;;;;;4966837;28;20507;-78
2021/06/07 08:59:06;;;;;;;4.40;3.88;;;27.70;99.90;;;;;;4959407;28;20078;-78
2021/06/07 09:01:32;;;;;;;4.47;4.07;;;27.70;99.90;;;;;;4974695;28;20070;-78
2021/06/07 09:04:19;;;;;;;7.53;4.18;;;28.10;99.90;;;;;;4961435;28;20031;-77
2021/06/07 09:06:47;;;;;;;4.43;4.03;;;28.40;99.90;;;;;;4968450;28;20030;-77
2021/06/07 09:09:16;;;;;;;8.68;4.50;;;28.60;99.90;;;;;;4975111;28;20027;-77
2021/06/07 09:11:56;;;;;;;9.63;4.00;;;28.70;99.90;;;;;;4973992;28;20388;-76
2021/06/07 09:14:24;;;;;;;7.85;4.32;;;28.80;99.90;;;;;;4966276;28;20045;-81
2021/06/07 09:16:51;;;;;;;6.97;3.88;;;29.00;99.90;;;;;;4969080;28;20194;-80
2021/06/07 09:19:24;;;;;;;3.70;3.40;;;29.20;99.90;;;;;;4971664;28;20022;-77
2021/06/07 09:21:51;;;;;;;7.30;3.65;;;29.10;99.90;;;;;;4965420;28;20333;-78
2021/06/07 09:24:17;;;;;;;5.35;3.95;;;29.10;99.90;;;;;;4970899;28;20034;-77
2021/06/07 09:26:48;;;;;;;4.22;3.83;;;29.10;99.90;;;;;;4969246;28;20038;-78
2021/06/07 09:29:23;;;;;;;4.90;3.40;;;29.20;99.90;;;;;;4965057;28;20030;-78
2021/06/07 09:31:54;;;;;;;33.50;4.30;;;29.00;99.90;;;;;;4966040;28;20030;-79
2021/06/07 09:34:36;;;;;;;9.52;3.35;;;29.00;99.90;;;;;;4971434;28;20039;-78
2021/06/07 09:37:09;;;;;;;4.40;3.50;;;28.90;99.90;;;;;;4971607;28;20475;-80
2021/06/07 09:39:36;;;;;;;12.98;3.50;;;28.90;99.90;;;;;;4969173;28;20805;-77
2021/06/07 09:42:02;;;;;;;3.60;3.30;;;28.80;99.90;;;;;;4973124;28;20485;-79
2021/06/07 09:44:49;;;;;;;4.20;3.17;;;28.60;99.90;;;;;;4966910;28;20023;-78
2021/06/07 09:47:25;;;;;;;16.75;3.53;;;28.70;99.90;;;;;;4974069;28;20140;-78
2021/06/07 09:49:58;;;;;;;4.20;3.10;;;29.00;99.90;;;;;;4955728;28;20035;-79
2021/06/07 09:52:33;;;;;;;5.03;3.05;;;29.40;99.90;;;;;;4970229;28;20023;-77
2021/06/07 09:55:01;;;;;;;5.20;2.85;;;29.40;99.90;;;;;;4963700;28;20472;-78
2021/06/07 09:58:14;;;;;;;5.25;2.85;;;29.30;99.90;;;;;;4966278;28;20019;-81
2021/06/07 10:00:41;;;;;;;2.55;2.35;;;29.30;99.90;;;;;;4961009;28;20054;-83
2021/06/07 10:03:24;;;;;;;6.38;2.92;;;29.50;99.90;;;;;;4973753;28;20111;-85
2021/06/07 10:06:01;;;;;;;3.03;2.70;;;29.20;99.90;;;;;;4960676;28;20387;-83
2021/06/07 10:08:40;;;;;;;6.22;2.92;;;29.00;99.90;;;;;;4965740;28;20399;-79
2021/06/07 10:11:20;;;;;;;2.53;2.33;;;28.70;99.90;;;;;;4973753;28;20034;-83
2021/06/07 10:13:46;;;;;;;3.65;2.00;;;28.70;99.90;;;;;;4974056;28;20030;-79
2021/06/07 10:16:12;;;;;;;2.53;1.95;;;28.40;99.90;;;;;;4974077;28;20048;-80
2021/06/07 10:18:38;;;;;;;2.67;2.28;;;28.30;99.90;;;;;;4973421;28;20019;-77
2021/06/07 10:21:05;;;;;;;2.60;1.92;;;28.30;99.90;;;;;;4973740;28;20030;-79
2021/06/07 10:23:32;;;;;;;2.88;2.10;;;28.30;99.90;;;;;;4973774;28;20027;-79
2021/06/07 10:26:02;;;;;;;2.35;1.80;;;28.20;99.90;;;;;;4973385;28;20487;-77
2021/06/07 10:28:38;;;;;;;14.15;2.33;;;27.90;99.90;;;;;;4973929;28;20047;-80
2021/06/07 10:31:16;;;;;;;2.58;2.13;;;27.60;99.90;;;;;;4973218;28;20027;-83
2021/06/07 10:33:43;;;;;;;2.83;2.17;;;27.30;99.90;;;;;;4973364;28;20041;-79
2021/06/07 10:36:21;;;;;;;1.77;1.67;;;27.20;99.90;;;;;;4973940;28;20030;-84
2021/06/07 10:38:48;;;;;;;2.22;1.55;;;27.30;99.90;;;;;;4963090;28;20031;-80
2021/06/07 10:41:26;;;;;;;2.20;1.65;;;27.10;99.90;;;;;;4971056;28;20027;-82
2021/06/07 10:43:54;;;;;;;1.55;1.40;;;27.10;99.90;;;;;;4973064;28;20019;-86
2021/06/07 10:46:36;;;;;;;1.77;1.42;;;26.90;99.90;;;;;;4971937;28;20085;-82
2021/06/07 10:49:23;;;;;;;4.38;1.42;;;26.70;99.90;;;;;;4966510;28;20401;-81
2021/06/07 10:52:08;;;;;;;4.20;1.20;;;26.50;99.90;;;;;;4973375;28;20405;-82
2021/06/07 10:54:36;;;;;;;1.95;1.63;;;26.40;99.90;;;;;;4972133;28;20019;-83
2021/06/07 10:57:37;;;;;;;1.65;1.48;;;26.30;99.90;;;;;;4972960;28;20423;-82
2021/06/07 11:00:11;;;;;;;4.15;1.90;;;25.90;99.90;;;;;;4972235;28;20030;-84
2021/06/07 11:02:39;;;;;;;4.35;2.28;;;25.60;99.90;;;;;;4966392;28;20051;-82
2021/06/07 11:05:15;;;;;;;4.75;2.72;;;25.30;99.90;;;;;;4972168;28;20026;-79
2021/06/07 11:07:59;;;;;;;6.15;3.38;;;25.10;99.90;;;;;;4971745;28;20031;-81
2021/06/07 11:10:25;;;;;;;6.13;3.13;;;24.90;99.90;;;;;;4969139;28;20030;-86
2021/06/07 11:12:57;;;;;;;1.98;1.80;;;24.90;99.90;;;;;;4972275;28;20076;-82
2021/06/07 11:15:34;;;;;;;2.58;2.30;;;24.70;99.90;;;;;;4970309;28;20035;-83
2021/06/07 11:18:18;;;;;;;6.70;2.20;;;24.50;99.90;;;;;;4972029;28;20037;-81
2021/06/07 11:20:43;;;;;;;3.35;2.20;;;24.40;99.90;;;;;;4970313;28;20023;-83
2021/06/07 11:23:10;;;;;;;6.93;3.53;;;24.50;99.90;;;;;;4971791;28;20034;-82
2021/06/07 11:25:53;;;;;;;5.72;3.15;;;24.50;99.90;;;;;;4971493;28;20111;-83
2021/06/07 11:28:41;;;;;;;5.88;2.50;;;24.50;99.90;;;;;;4971303;28;20042;-78
2021/06/07 11:31:19;;;;;;;6.47;3.60;;;24.50;99.90;;;;;;4973476;28;20050;-87
2021/06/07 11:33:57;;;;;;;12.20;2.90;;;24.60;99.90;;;;;;4975806;28;20018;-78
2021/06/07 11:36:42;;;;;;;12.95;2.80;;;24.60;99.90;;;;;;4976061;28;20085;-80
2021/06/07 11:39:17;;;;;;;7.05;2.88;;;24.60;99.90;;;;;;4975732;28;20046;-78
2021/06/07 11:41:51;;;;;;;6.68;2.70;;;24.70;99.90;;;;;;4975169;28;20030;-81
2021/06/07 11:44:17;;;;;;;6.65;3.50;;;24.70;99.90;;;;;;4975365;28;20062;-78
2021/06/07 11:46:43;;;;;;;11.68;3.33;;;24.70;99.90;;;;;;4974957;28;20058;-78
2021/06/07 11:49:13;;;;;;;9.82;3.38;;;24.40;99.90;;;;;;5010180;23;20077;-77
2021/06/07 11:51:41;;;;;;;14.25;3.95;;;24.20;99.90;;;;;;4984728;28;20019;-80
2021/06/07 11:54:25;;;;;;;6.47;3.55;;;24.00;99.90;;;;;;4984546;28;20455;-85
2021/06/07 11:56:56;;;;;;;5.72;3.42;;;23.80;99.90;;;;;;4980973;28;20031;-85
2021/06/07 11:59:27;;;;;;;3.95;3.58;;;23.70;99.90;;;;;;4980285;28;20034;-83
2021/06/07 12:01:53;;;;;;;5.72;3.45;;;23.60;99.90;;;;;;4977528;28;20022;-82
2021/06/07 12:04:27;;;;;;;9.38;4.05;;;23.60;99.90;;;;;;4982404;28;20026;-84
2021/06/07 12:07:01;;;;;;;4.45;3.53;;;23.60;99.90;;;;;;4982306;28;20497;-78
2021/06/07 12:09:28;;;;;;;7.88;3.72;;;23.50;99.90;;;;;;4992581;28;20033;-84
2021/06/07 12:11:54;;;;;;;8.10;3.55;;;23.50;99.90;;;;;;4987584;28;20372;-81
2021/06/07 12:14:32;;;;;;;22.85;3.97;;;23.50;99.90;;;;;;4984000;28;20030;-84
2021/06/07 12:17:19;;;;;;;8.05;3.70;;;23.50;99.90;;;;;;4988491;28;20037;-85
2021/06/07 12:19:51;;;;;;;8.57;3.85;;;23.50;99.90;;;;;;4996141;28;20077;-87
2021/06/07 12:22:40;;;;;;;11.68;3.53;;;23.70;99.90;;;;;;4995725;28;20105;-87
2021/06/07 12:30:30;;;;;;;6.40;3.63;;;24.00;99.90;;;;;;4993494;28;20118;-77
2021/06/07 12:32:57;;;;;;;10.38;3.22;;;24.10;99.90;;;;;;4995690;28;20026;-85
2021/06/07 12:35:25;;;;;;;6.22;3.58;;;24.10;99.90;;;;;;4994564;28;20053;-82
2021/06/07 12:37:57;;;;;;;3.70;3.22;;;24.10;99.90;;;;;;4993444;28;20306;-86
2021/06/07 12:40:32;;;;;;;7.78;3.35;;;24.20;99.90;;;;;;4995214;28;20541;-84
2021/06/07 12:43:07;;;;;;;5.57;3.65;;;24.30;99.90;;;;;;4993101;28;20080;-84
2021/06/07 12:46:02;;;;;;;10.13;3.05;;;24.50;99.90;;;;;;4994135;28;20026;-85
2021/06/07 12:48:30;;;;;;;15.10;2.97;;;24.70;99.90;;;;;;4992407;28;20499;-85
2021/06/07 12:51:05;;;;;;;3.58;2.58;;;24.80;99.90;;;;;;4993461;28;20026;-86
2021/06/07 12:53:40;;;;;;;10.85;3.20;;;24.70;99.90;;;;;;4991688;28;20050;-83
2021/06/07 12:56:18;;;;;;;7.38;3.10;;;24.60;99.90;;;;;;4994326;28;20026;-85
2021/06/07 12:58:47;;;;;;;8.70;3.25;;;24.60;99.90;;;;;;4994181;28;20046;-87